createdAt,value
2023-06-21T14:04:16.766Z,124.22
2023-06-21T14:06:43.727Z,124.45
2023-06-21T14:09:10.600Z,118.90
2023-06-21T14:11:37.413Z,63.05
2023-06-21T14:14:06.619Z,66.95
2023-06-21T14:16:33.560Z,36.22
2023-06-21T14:19:00.580Z,23.05
2023-06-21T14:21:27.621Z,20.58
2023-06-21T14:23:54.627Z,17.52
2023-06-21T14:26:21.963Z,19.20
2023-06-21T14:28:48.855Z,19.27
2023-06-21T14:31:15.763Z,19.88
2023-06-21T14:33:42.689Z,18.08
2023-06-21T14:36:09.746Z,19.70
2023-06-21T14:38:39.715Z,20.00
2023-06-21T14:41:06.616Z,20.42
2023-06-21T14:43:33.491Z,20.83
2023-06-21T14:46:00.335Z,23.63
2023-06-21T14:48:27.283Z,22.27
2023-06-21T14:50:54.302Z,18.80
2023-06-21T14:53:21.658Z,21.63
2023-06-21T14:55:49.003Z,20.08
2023-06-21T14:58:15.941Z,22.90
2023-06-21T15:00:42.957Z,20.30
2023-06-21T15:03:09.884Z,21.92
2023-06-21T15:05:36.868Z,23.30
2023-06-21T15:08:03.786Z,22.65
2023-06-21T15:10:31.034Z,22.85
2023-06-21T15:13:02.237Z,18.55
2023-06-21T15:15:30.230Z,17.67
2023-06-21T15:17:57.557Z,16.73
2023-06-21T15:20:24.628Z,15.95
2023-06-21T15:22:51.571Z,14.65
2023-06-21T15:25:18.579Z,13.77
2023-06-21T15:27:45.493Z,15.50
2023-06-21T15:30:12.880Z,13.18
2023-06-21T15:32:39.908Z,16.45
2023-06-21T15:35:07.221Z,15.73
2023-06-21T15:37:34.116Z,15.65
2023-06-21T15:40:01.061Z,13.05
2023-06-21T15:42:28.105Z,15.18
2023-06-21T15:44:55.530Z,18.98
2023-06-21T15:47:22.470Z,19.63
2023-06-21T15:49:49.436Z,17.95
2023-06-21T15:52:16.604Z,18.25
2023-06-21T15:54:43.525Z,17.75
2023-06-21T15:57:10.405Z,17.65
2023-06-21T15:59:37.981Z,19.45
2023-06-21T16:02:05.239Z,15.68
2023-06-21T16:04:32.174Z,13.18
2023-06-21T16:07:03.515Z,11.00
2023-06-21T16:09:30.446Z,11.15
2023-06-21T16:11:58.240Z,12.38
2023-06-21T16:14:26.174Z,11.32
2023-06-21T16:16:53.066Z,9.82
2023-06-21T16:19:20.781Z,14.20
2023-06-21T16:21:48.104Z,10.52
2023-06-21T16:24:16.721Z,7.30
2023-06-21T16:26:43.617Z,6.18
2023-06-21T16:29:10.443Z,6.50
2023-06-21T16:31:39.275Z,6.60
2023-06-21T16:34:06.546Z,6.85
2023-06-21T16:36:33.403Z,6.65
2023-06-21T16:39:00.449Z,6.75
2023-06-21T16:41:28.271Z,6.60
2023-06-21T16:43:55.093Z,6.78
2023-06-21T16:46:21.970Z,7.28
2023-06-21T16:48:49.574Z,7.03
2023-06-21T16:51:16.822Z,7.55
2023-06-21T16:53:43.692Z,7.82
2023-06-21T16:56:10.945Z,8.05
2023-06-21T16:58:37.784Z,8.27
2023-06-21T17:01:04.869Z,8.82
2023-06-21T17:03:32.005Z,10.00
2023-06-21T17:05:58.937Z,11.18
2023-06-21T17:08:28.078Z,11.02
2023-06-21T17:10:55.264Z,10.93
2023-06-21T17:13:22.185Z,13.32
2023-06-21T17:15:49.062Z,11.52
2023-06-21T17:18:15.978Z,13.48
2023-06-21T17:20:42.866Z,14.15
2023-06-21T17:23:09.789Z,15.13
2023-06-21T17:25:36.704Z,12.88
2023-06-21T17:28:03.715Z,15.70
2023-06-21T17:30:30.558Z,17.60
2023-06-21T17:32:57.502Z,15.45
2023-06-21T17:35:24.402Z,16.42
2023-06-21T17:37:51.878Z,17.55
2023-06-21T17:40:18.810Z,16.13
2023-06-21T17:42:45.723Z,16.02
2023-06-21T17:45:12.708Z,16.92
2023-06-21T17:47:39.929Z,16.92
2023-06-21T17:50:08.029Z,15.55
2023-06-21T17:52:34.930Z,17.80
2023-06-21T17:55:01.854Z,15.38
2023-06-21T17:57:30.178Z,16.48
2023-06-21T17:59:57.220Z,17.70
2023-06-21T18:02:24.628Z,19.05
2023-06-21T18:04:51.556Z,80.18
2023-06-21T18:07:18.697Z,26.95
2023-06-21T18:09:45.498Z,17.55
2023-06-21T18:12:12.986Z,17.35
2023-06-21T18:14:41.575Z,17.80
2023-06-21T18:17:08.565Z,17.58
2023-06-21T18:19:35.493Z,18.92
2023-06-21T18:22:12.748Z,18.83
2023-06-21T18:24:40.805Z,18.23
2023-06-21T18:27:08.467Z,17.10
2023-06-21T18:29:35.376Z,18.50
2023-06-21T18:32:03.229Z,16.60
2023-06-21T18:34:30.240Z,18.13
2023-06-21T18:36:57.093Z,16.83
2023-06-21T18:39:24.018Z,18.75
2023-06-21T18:41:51.212Z,17.10
2023-06-21T18:44:18.133Z,16.80
2023-06-21T18:46:45.005Z,16.33
2023-06-21T18:49:11.870Z,17.60
2023-06-21T18:51:38.820Z,17.15
2023-06-21T18:54:05.696Z,18.50
2023-06-21T18:56:32.582Z,18.83
2023-06-21T18:58:59.486Z,20.42
2023-06-21T19:01:26.408Z,17.90
2023-06-21T19:03:57.673Z,18.45
2023-06-21T19:06:27.548Z,18.65
2023-06-21T19:08:54.869Z,17.60
2023-06-21T19:11:22.095Z,19.15
2023-06-21T19:13:49.244Z,18.17
2023-06-21T19:16:18.316Z,18.98
2023-06-21T19:18:45.144Z,18.17
2023-06-21T19:21:12.038Z,18.13
2023-06-21T19:23:39.013Z,18.67
2023-06-21T19:26:05.970Z,18.30
2023-06-21T19:28:32.890Z,17.60
2023-06-21T19:30:59.884Z,18.60
2023-06-21T19:33:26.850Z,19.35
2023-06-21T19:35:53.722Z,17.98
2023-06-21T19:38:20.571Z,17.85
2023-06-21T19:40:47.910Z,18.55
2023-06-21T19:43:15.236Z,17.20
2023-06-21T19:45:42.206Z,18.58
2023-06-21T19:48:10.474Z,16.85
2023-06-21T19:50:37.416Z,17.58
2023-06-21T19:53:04.907Z,17.58
2023-06-21T19:55:31.788Z,18.70
2023-06-21T19:57:58.772Z,18.15
2023-06-21T20:00:25.887Z,18.60
2023-06-21T20:02:54.970Z,18.00
2023-06-21T20:05:21.957Z,17.75
2023-06-21T20:07:48.927Z,16.90
2023-06-21T20:10:15.819Z,16.77
2023-06-21T20:12:42.708Z,17.60
2023-06-21T20:15:10.090Z,17.58
2023-06-21T20:17:38.180Z,16.92
2023-06-21T20:20:09.463Z,17.20
2023-06-21T20:22:36.374Z,17.10
2023-06-21T20:25:03.700Z,16.95
2023-06-21T20:27:30.687Z,18.20
2023-06-21T20:29:57.626Z,17.65
2023-06-21T20:32:24.632Z,16.55
2023-06-21T20:34:52.388Z,16.65
2023-06-21T20:37:19.475Z,16.55
2023-06-21T20:39:48.411Z,17.98
2023-06-21T20:42:15.602Z,19.58
2023-06-21T20:44:42.510Z,19.45
2023-06-21T20:47:09.774Z,19.55
2023-06-21T20:49:36.685Z,18.98
2023-06-21T20:52:03.894Z,19.25
2023-06-21T20:54:32.618Z,19.42
2023-06-21T20:56:59.561Z,18.52
2023-06-21T20:59:26.506Z,18.73
2023-06-21T21:01:53.951Z,19.98
2023-06-21T21:04:21.147Z,20.67
2023-06-21T21:06:48.138Z,20.90
2023-06-21T21:09:15.130Z,20.33
2023-06-21T21:11:42.167Z,20.00
2023-06-21T21:14:09.143Z,19.17
2023-06-21T21:16:38.098Z,20.20
2023-06-21T21:19:05.233Z,20.10
2023-06-21T21:21:32.219Z,20.13
2023-06-21T21:23:59.396Z,21.33
2023-06-21T21:26:26.297Z,21.92
2023-06-21T21:28:53.120Z,21.98
2023-06-21T21:31:20.110Z,22.35
2023-06-21T21:33:47.065Z,21.92
2023-06-21T21:36:13.928Z,20.90
2023-06-21T21:38:40.845Z,20.77
2023-06-21T21:41:07.685Z,21.55
2023-06-21T21:43:34.505Z,23.88
2023-06-21T21:46:01.468Z,22.95
2023-06-21T21:48:28.353Z,24.88
2023-06-21T21:50:55.220Z,23.83
2023-06-21T21:53:22.146Z,25.73
2023-06-21T21:55:50.793Z,24.75
2023-06-21T21:58:17.691Z,24.13
2023-06-21T22:00:46.199Z,22.30
2023-06-21T22:03:13.773Z,22.42
2023-06-21T22:05:40.766Z,20.50
2023-06-21T22:08:07.617Z,18.33
2023-06-21T22:10:39.111Z,20.85
2023-06-21T22:13:10.932Z,21.25
2023-06-21T22:15:50.848Z,24.23
2023-06-21T22:18:25.820Z,23.55
2023-06-21T22:20:54.058Z,21.90
2023-06-21T22:23:20.977Z,20.63
2023-06-21T22:25:47.870Z,15.35
2023-06-21T22:28:14.801Z,9.27
2023-06-21T22:30:42.020Z,8.57
2023-06-21T22:33:09.036Z,8.00
2023-06-21T22:35:35.934Z,11.02
2023-06-21T22:38:03.001Z,16.58
2023-06-21T22:40:30.091Z,17.55
2023-06-21T22:42:59.988Z,20.77
2023-06-21T22:45:26.932Z,19.58
2023-06-21T22:47:53.813Z,19.25
2023-06-21T22:50:20.736Z,16.58
2023-06-21T22:52:52.729Z,10.88
2023-06-21T22:55:20.334Z,8.82
2023-06-21T22:57:47.178Z,8.85
2023-06-21T23:00:14.684Z,16.63
2023-06-21T23:02:41.711Z,16.40
2023-06-21T23:05:09.285Z,16.73
2023-06-21T23:07:36.221Z,16.63
2023-06-21T23:10:09.644Z,18.25
2023-06-21T23:12:48.344Z,20.63
2023-06-21T23:15:18.592Z,17.02
2023-06-21T23:17:46.498Z,6.72
2023-06-21T23:20:14.555Z,7.95
2023-06-21T23:22:43.960Z,11.43
2023-06-21T23:25:12.368Z,13.10
2023-06-21T23:27:39.321Z,13.52
2023-06-21T23:30:15.199Z,12.35
2023-06-21T23:32:47.651Z,8.75
2023-06-21T23:35:14.540Z,18.08
2023-06-21T23:37:41.461Z,23.70
2023-06-21T23:40:12.069Z,22.27
2023-06-21T23:42:39.687Z,16.23
2023-06-21T23:45:11.640Z,7.72
2023-06-21T23:47:38.896Z,9.52
2023-06-21T23:50:07.311Z,11.88
2023-06-21T23:52:34.657Z,11.98
2023-06-21T23:55:01.679Z,20.88
2023-06-21T23:57:28.609Z,22.48
2023-06-21T23:59:57.059Z,9.75
